Capewater — PBPQ — position and weather

sailwx.info

Track history (hours):
 
Tides and Currents Weather Stations Pressure Air Temp Water Temp Dewpoint Dewpoint Depression Visibility Wind Speed Wind Dir Waves Ship Positions

Capewater

Last reported at 2017-Aug-16 14:34 UTC. Time now 2017-Aug-16 21:49 UTC.
Position N 49°29' E 000°31'.

Length 100 m; draft 5.1 m.

Type: Tanker. MMSI: 246346000.

Date/timePositionNaut miles runAvg speedWind from/ knotsBaromVisibWave heightAir tempDewpointWater temp
2017-Aug-16 14:34N 49°29' E 000°31'2 6.7
2017-Aug-16 14:17N 49°28' E 000°28'412.9
2017-Aug-16 14:00N 49°27' E 000°23'714.1
2017-Aug-16 13:31N 49°26' E 000°13'815.3
2017-Aug-16 13:00N 49°27' E 000°01'4 7.6
2017-Aug-16 12:29N 49°28' W 000°05'0 0.1
2017-Aug-16 11:59N 49°28' W 000°05'0 0.1
2017-Aug-16 11:29N 49°28' W 000°05'0 0.0
2017-Aug-16 10:59N 49°28' W 000°05'0 0.0
2017-Aug-16 10:29N 49°28' W 000°05'0 0.0
2017-Aug-16 09:59N 49°28' W 000°05'0 0.0
2017-Aug-16 09:29N 49°28' W 000°05'0 0.0
2017-Aug-16 08:59N 49°28' W 000°05'0 0.0
2017-Aug-16 08:29N 49°28' W 000°05'0 0.1
2017-Aug-16 07:59N 49°28' W 000°05'0 0.1
2017-Aug-16 07:29N 49°28' W 000°05'0 0.0
2017-Aug-16 06:59N 49°28' W 000°05'0 0.0
2017-Aug-16 06:29N 49°28' W 000°05'0 0.1
2017-Aug-16 05:59N 49°28' W 000°05'0 0.0
2017-Aug-16 05:29N 49°28' W 000°05'0 0.0
2017-Aug-16 04:59N 49°28' W 000°05'0 0.0
2017-Aug-16 04:29N 49°28' W 000°05'0 0.0
2017-Aug-16 03:59N 49°28' W 000°05'0 0.0
2017-Aug-16 03:29N 49°28' W 000°05'0 0.0
2017-Aug-16 02:59N 49°28' W 000°05'0 0.0
2017-Aug-16 02:29N 49°28' W 000°05'0 0.0
2017-Aug-16 01:59N 49°28' W 000°05'0 0.0
2017-Aug-16 01:29N 49°28' W 000°05'0 0.0
2017-Aug-16 00:59N 49°28' W 000°05'0 0.0
2017-Aug-16 00:29N 49°28' W 000°05'0 0.0
2017-Aug-15 23:59N 49°28' W 000°05'0 0.0
2017-Aug-15 23:29N 49°28' W 000°05'0 0.0
2017-Aug-15 22:59N 49°28' W 000°05'0 0.0
2017-Aug-15 22:29N 49°28' W 000°05'0 0.0
2017-Aug-15 21:59N 49°28' W 000°05'0 0.0
2017-Aug-15 21:29N 49°28' W 000°05'0 0.0
2017-Aug-15 20:59N 49°28' W 000°05'0 0.0
2017-Aug-15 20:29N 49°28' W 000°05'0 0.0
2017-Aug-15 19:59N 49°28' W 000°05'0 0.0
2017-Aug-15 19:29N 49°28' W 000°05'0 0.0
2017-Aug-15 18:59N 49°28' W 000°05'0 0.1
2017-Aug-15 18:29N 49°28' W 000°05'0 0.0
2017-Aug-15 17:59N 49°28' W 000°05'0 0.0
2017-Aug-15 17:29N 49°28' W 000°05'0 0.0
2017-Aug-15 16:59N 49°28' W 000°05'0 0.1
2017-Aug-15 16:29N 49°28' W 000°05'0 0.0
2017-Aug-15 15:59N 49°28' W 000°05'0 0.0
2017-Aug-15 15:29N 49°28' W 000°05'0 0.0
2017-Aug-15 14:59N 49°28' W 000°05'0 0.0
2017-Aug-15 14:29N 49°28' W 000°05'0 0.0
2017-Aug-15 13:59N 49°28' W 000°05'1 1.8
2017-Aug-15 13:30N 49°28' W 000°03'612.1
2017-Aug-15 13:00N 49°26' E 000°05'612.3
2017-Aug-15 12:31N 49°26' E 000°15'611.2
2017-Aug-15 12:00N 49°27' E 000°23'611.1
2017-Aug-15 11:30N 49°29' E 000°31'510.8
2017-Aug-15 11:00N 49°27' E 000°39'0 0.0
2017-Aug-14 01:45N 49°27' E 000°39'412.3
2017-Aug-14 01:25N 49°28' E 000°33'4 9.3
2017-Aug-14 01:00N 49°28' E 000°27'815.5
2017-Aug-14 00:30N 49°26' E 000°15'612.8
2017-Aug-14 00:00N 49°26' E 000°06'4 8.6
2017-Aug-13 23:30N 49°30' E 000°02'4 6.6
2017-Aug-13 22:58N 49°28' E 000°07'0 0.0
2017-Aug-13 22:28N 49°28' E 000°07'0 0.0
2017-Aug-13 21:58N 49°28' E 000°07'0 0.0
2017-Aug-13 21:28N 49°28' E 000°07'0 0.0
2017-Aug-13 20:58N 49°28' E 000°07'0 0.0
2017-Aug-13 20:28N 49°28' E 000°07'0 0.0
2017-Aug-13 19:55N 49°28' E 000°07'0 0.0
2017-Aug-13 19:28N 49°28' E 000°07'0 0.0
2017-Aug-13 18:58N 49°28' E 000°07'0 0.0
2017-Aug-13 18:28N 49°28' E 000°07'0 0.0
2017-Aug-13 17:58N 49°28' E 000°07'0 0.0
2017-Aug-13 17:28N 49°28' E 000°07'0 0.0
2017-Aug-13 16:58N 49°28' E 000°07'0 0.0
2017-Aug-13 16:28N 49°28' E 000°07'0 0.0
2017-Aug-13 15:58N 49°28' E 000°07'0 0.0
2017-Aug-13 15:28N 49°28' E 000°07'0 0.0
2017-Aug-13 14:58N 49°28' E 000°07'0 0.0
2017-Aug-13 14:28N 49°28' E 000°07'0 0.0
2017-Aug-13 13:58N 49°28' E 000°07'0 0.0
2017-Aug-13 13:28N 49°28' E 000°07'0 0.0
2017-Aug-13 12:58N 49°28' E 000°07'0 0.0
2017-Aug-13 12:28N 49°28' E 000°07'0 0.0
2017-Aug-13 11:58N 49°28' E 000°07'0 0.6
2017-Aug-13 11:31N 49°29' E 000°07'611.2
2017-Aug-13 11:00N 49°30' W 000°02'1 1.6
2017-Aug-13 10:29N 49°29' W 000°03'0 0.0
2017-Aug-13 09:59N 49°29' W 000°03'0 0.0
2017-Aug-13 09:29N 49°29' W 000°03'0 0.0
2017-Aug-13 08:59N 49°29' W 000°03'0 0.0
2017-Aug-13 08:29N 49°29' W 000°03'1 1.3
2017-Aug-13 08:00N 49°30' W 000°03'612.4
2017-Aug-13 07:30N 49°34' W 000°11'612.8
2017-Aug-13 07:00N 49°40' W 000°11'612.0
2017-Aug-13 06:30N 49°46' W 000°10'2812.3
2017-Aug-13 04:15N 50°14' W 000°07'312.5
2017-Aug-13 03:59N 50°17' W 000°07'612.5
2017-Aug-13 03:30N 50°23' W 000°05'612.9
2017-Aug-13 03:01N 50°28' E 000°01'713.7
2017-Aug-13 02:31N 50°31' E 000°11'713.1
2017-Aug-13 02:00N 50°33' E 000°21'612.6
2017-Aug-13 01:30N 50°34' E 000°30'611.9
2017-Aug-13 01:00N 50°36' E 000°39'611.9
2017-Aug-13 00:31N 50°39' E 000°47'611.9
2017-Aug-13 00:00N 50°43' E 000°55'912.6
2017-Aug-12 23:18N 50°49' E 001°06'413.0
2017-Aug-12 23:00N 50°51' E 001°10'714.1
2017-Aug-12 22:30N 50°56' E 001°19'815.6
2017-Aug-12 22:01N 51°01' E 001°27'816.0
2017-Aug-12 21:31N 51°07' E 001°36'815.7
2017-Aug-12 21:01N 51°12' E 001°45'714.6
2017-Aug-12 20:31N 51°19' E 001°50'714.0
2017-Aug-12 20:00N 51°25' E 001°57'713.4
2017-Aug-12 19:30N 51°30' E 002°04'612.9
2017-Aug-12 19:01N 51°35' E 002°10'612.7
2017-Aug-12 18:30N 51°39' E 002°17'612.3
2017-Aug-12 18:00N 51°44' E 002°24'12713.2
2017-Aug-12 08:21N 53°23' E 004°34'411.6
2017-Aug-12 07:59N 53°27' E 004°38'511.6
2017-Aug-12 07:30N 53°31' E 004°45'611.7
2017-Aug-12 07:00N 53°32' E 004°55'612.0
2017-Aug-12 06:29N 53°34' E 005°04'10113.3
2017-Aug-11 22:52N 54°02' E 007°49'512.5
2017-Aug-11 22:30N 54°01' E 007°57'612.4
2017-Aug-11 22:00N 54°01' E 008°07'5 9.8
2017-Aug-11 21:30N 54°00' E 008°16'714.3
2017-Aug-11 21:00N 53°59' E 008°28'815.4
2017-Aug-11 20:30N 53°56' E 008°40'815.5
2017-Aug-11 20:01N 53°50' E 008°48'816.7
2017-Aug-11 19:30N 53°52' E 009°02'4 8.3
2017-Aug-11 19:00N 53°54' E 009°09'1 2.3
2017-Aug-11 18:30N 53°54' E 009°10'0 0.4
2017-Aug-11 17:58N 53°55' E 009°11'0 0.0
2017-Aug-11 17:28N 53°55' E 009°11'0 0.0
2017-Aug-11 16:58N 53°55' E 009°11'0 0.0
2017-Aug-11 16:25N 53°55' E 009°11'0 0.0
2017-Aug-11 15:58N 53°55' E 009°11'0 0.0
2017-Aug-11 15:25N 53°55' E 009°11'0 0.0
2017-Aug-11 14:58N 53°55' E 009°11'0 0.0
2017-Aug-11 13:58N 53°55' E 009°11'0 0.0
2017-Aug-11 13:28N 53°55' E 009°11'0 0.0
2017-Aug-11 12:58N 53°55' E 009°11'0 0.0
2017-Aug-11 12:28N 53°55' E 009°11'0 0.0
2017-Aug-11 11:58N 53°55' E 009°11'0 0.0
2017-Aug-11 11:28N 53°55' E 009°11'0 0.0
2017-Aug-11 10:55N 53°55' E 009°11'0 0.0
2017-Aug-11 10:28N 53°55' E 009°11'0 0.0
2017-Aug-11 09:55N 53°55' E 009°11'0 0.0
2017-Aug-11 09:19N 53°55' E 009°11'0 0.0
2017-Aug-11 08:58N 53°55' E 009°11'0 0.0
2017-Aug-11 08:28N 53°55' E 009°11'0 0.0
2017-Aug-11 07:55N 53°55' E 009°11'0 0.0
2017-Aug-11 07:28N 53°55' E 009°11'0 0.0
2017-Aug-11 06:58N 53°55' E 009°11'0 0.0
2017-Aug-11 06:28N 53°55' E 009°10'0 0.0
2017-Aug-11 05:52N 53°55' E 009°11'0 0.0
2017-Aug-11 05:28N 53°55' E 009°11'0 0.0
2017-Aug-11 04:58N 53°55' E 009°11'0 0.0
2017-Aug-11 04:28N 53°55' E 009°11'0 0.0
2017-Aug-11 03:58N 53°55' E 009°11'0 0.0
2017-Aug-11 03:16N 53°55' E 009°11'0 0.0
2017-Aug-11 02:58N 53°55' E 009°11'0 0.0
2017-Aug-11 02:28N 53°55' E 009°11'0 0.0
2017-Aug-11 01:58N 53°55' E 009°11'0 0.0
2017-Aug-11 01:28N 53°55' E 009°11'0 0.0
2017-Aug-11 00:58N 53°55' E 009°11'0 0.0
2017-Aug-11 00:25N 53°55' E 009°11'0 0.0
2017-Aug-10 23:58N 53°55' E 009°11'0 0.0
2017-Aug-10 23:25N 53°55' E 009°11'0 0.0
2017-Aug-10 22:58N 53°55' E 009°11'0 0.0
2017-Aug-10 22:28N 53°55' E 009°11'0 0.0
2017-Aug-10 21:58N 53°55' E 009°11'0 0.0
2017-Aug-10 21:28N 53°55' E 009°11'0 0.0
2017-Aug-10 20:58N 53°55' E 009°11'0 0.0
2017-Aug-10 20:28N 53°55' E 009°11'0 0.0
2017-Aug-10 19:58N 53°55' E 009°11'0 0.0
2017-Aug-10 19:13N 53°55' E 009°11'0 0.0
2017-Aug-10 18:58N 53°55' E 009°11'0 0.0
2017-Aug-10 18:19N 53°55' E 009°11'0 0.0
2017-Aug-10 18:00N 53°55' E 009°11'0 0.7
2017-Aug-10 17:31N 53°54' E 009°10'1 2.0
2017-Aug-10 17:00N 53°54' E 009°09'0 0.3
2017-Aug-10 16:30N 53°54' E 009°09'3 5.2
2017-Aug-10 16:00N 53°52' E 009°05'713.7
2017-Aug-10 15:30N 53°50' E 008°54'714.1
2017-Aug-10 15:01N 53°53' E 008°42'714.1
2017-Aug-10 14:30N 53°58' E 008°33'714.3
2017-Aug-10 14:00N 53°59' E 008°22'713.9
2017-Aug-10 13:28N 53°59' E 008°09'612.0
2017-Aug-10 12:59N 53°58' E 007°59'9213.9
2017-Aug-10 06:20N 53°34' E 005°28'513.7
2017-Aug-10 06:00N 53°33' E 005°21'713.7
2017-Aug-10 05:30N 53°31' E 005°10'713.5
2017-Aug-10 05:00N 53°29' E 004°60'713.5
2017-Aug-10 04:30N 53°26' E 004°49'2012.6
2017-Aug-10 02:56N 53°10' E 004°29'512.0
2017-Aug-10 02:30N 53°05' E 004°25'611.9
2017-Aug-10 02:00N 53°00' E 004°20'611.8
2017-Aug-10 01:30N 52°55' E 004°16'612.1
2017-Aug-10 01:00N 52°49' E 004°11'2412.3
2017-Aug-09 23:03N 52°34' E 003°41'312.2
2017-Aug-09 22:50N 52°33' E 003°37'6912.4
2017-Aug-09 17:13N 51°47' E 002°13'314.0
2017-Aug-09 16:58N 51°44' E 002°09'714.1
2017-Aug-09 16:30N 51°39' E 002°02'713.6
2017-Aug-09 16:00N 51°34' E 001°54'815.5
2017-Aug-09 15:30N 51°30' E 001°43'715.0
2017-Aug-09 15:00N 51°27' E 001°33'611.2
2017-Aug-09 14:30N 51°28' E 001°24'715.0
2017-Aug-09 14:00N 51°29' E 001°12'714.0
2017-Aug-09 13:30N 51°29' E 001°01'6 0.2
2017-Aug-07 23:55N 51°30' E 000°51'3 6.8
2017-Aug-07 23:28N 51°29' E 000°55'511.6
2017-Aug-07 23:00N 51°30' E 001°04'613.0
2017-Aug-07 22:31N 51°29' E 001°14'612.9
2017-Aug-07 22:00N 51°28' E 001°25'5 9.3
2017-Aug-07 21:30N 51°26' E 001°31'611.2
2017-Aug-07 21:01N 51°32' E 001°29'0 0.2
2017-Aug-07 20:29N 51°32' E 001°29'0 0.0
2017-Aug-07 19:56N 51°32' E 001°29'0 0.0
2017-Aug-07 19:29N 51°32' E 001°29'0 0.0
2017-Aug-07 18:59N 51°32' E 001°29'0 0.1
2017-Aug-07 18:26N 51°32' E 001°30'0 0.0
2017-Aug-07 17:56N 51°32' E 001°30'0 0.0
2017-Aug-07 17:29N 51°32' E 001°30'0 0.0
2017-Aug-07 16:56N 51°32' E 001°30'0 0.0
2017-Aug-07 16:26N 51°32' E 001°30'0 0.0
2017-Aug-07 15:59N 51°32' E 001°30'0 0.0
2017-Aug-07 15:29N 51°32' E 001°30'0 0.0
2017-Aug-07 14:59N 51°32' E 001°30'0 0.0
2017-Aug-07 14:29N 51°32' E 001°30'0 0.0
2017-Aug-07 13:59N 51°32' E 001°30'0 0.0
2017-Aug-07 13:29N 51°32' E 001°30'0 0.0
2017-Aug-07 12:59N 51°32' E 001°29'0 0.0
2017-Aug-07 12:29N 51°32' E 001°29'0 0.1
2017-Aug-07 11:59N 51°32' E 001°29'0 0.0
2017-Aug-07 11:29N 51°32' E 001°29'0 0.0
2017-Aug-07 10:59N 51°32' E 001°29'0 0.0
2017-Aug-07 10:29N 51°32' E 001°29'0 0.0
2017-Aug-07 09:59N 51°32' E 001°29'0 0.0
2017-Aug-07 09:29N 51°32' E 001°29'0 0.0
2017-Aug-07 08:59N 51°32' E 001°29'0 0.0
2017-Aug-07 08:29N 51°32' E 001°29'0 0.1
2017-Aug-07 07:59N 51°32' E 001°29'0 0.0
2017-Aug-07 07:29N 51°32' E 001°29'0 0.1
2017-Aug-07 06:53N 51°32' E 001°29'0 0.2
2017-Aug-07 06:29N 51°32' E 001°30'0 0.1
2017-Aug-07 05:50N 51°32' E 001°30'0 0.0
2017-Aug-07 05:26N 51°32' E 001°30'0 0.0
2017-Aug-07 04:59N 51°32' E 001°30'0 0.0
2017-Aug-07 04:23N 51°32' E 001°30'0 0.2
2017-Aug-07 04:00N 51°32' E 001°30'3 7.0
2017-Aug-07 03:30N 51°31' E 001°35'5 9.3
2017-Aug-07 03:00N 51°32' E 001°42'5 9.1
2017-Aug-07 02:31N 51°34' E 001°49'5 9.3
2017-Aug-07 02:00N 51°36' E 001°56'5 9.6
2017-Aug-07 01:30N 51°39' E 002°01'4 9.2
2017-Aug-07 01:01N 51°43' E 002°06'5 9.2
2017-Aug-07 00:31N 51°46' E 002°11'5 9.1
2017-Aug-06 23:59N 51°49' E 002°16'26 9.3
2017-Aug-06 21:14N 52°09' E 002°44'2210.9
2017-Aug-06 19:13N 52°24' E 003°09'312.2
2017-Aug-06 19:00N 52°26' E 003°13'  
Track history (hours):
 
Tides and Currents Weather Stations Pressure Air Temp Water Temp Dewpoint Dewpoint Depression Visibility Wind Speed Wind Dir Waves Ship Positions

Capewater

Last reported at 2017-Aug-16 14:34 UTC. Time now 2017-Aug-16 21:49 UTC.
Position N 49°29' E 000°31'.

Length 100 m; draft 5.1 m.

Type: Tanker. MMSI: 246346000.

Date/timePositionNaut miles runAvg speedWind from/ knotsBaromVisibWave heightAir tempDewpointWater temp
2017-Aug-16 14:34N 49°29' E 000°31'2 6.7
2017-Aug-16 14:17N 49°28' E 000°28'412.9
2017-Aug-16 14:00N 49°27' E 000°23'714.1
2017-Aug-16 13:31N 49°26' E 000°13'815.3
2017-Aug-16 13:00N 49°27' E 000°01'4 7.6
2017-Aug-16 12:29N 49°28' W 000°05'0 0.1
2017-Aug-16 11:59N 49°28' W 000°05'0 0.1
2017-Aug-16 11:29N 49°28' W 000°05'0 0.0
2017-Aug-16 10:59N 49°28' W 000°05'0 0.0
2017-Aug-16 10:29N 49°28' W 000°05'0 0.0
2017-Aug-16 09:59N 49°28' W 000°05'0 0.0
2017-Aug-16 09:29N 49°28' W 000°05'0 0.0
2017-Aug-16 08:59N 49°28' W 000°05'0 0.0
2017-Aug-16 08:29N 49°28' W 000°05'0 0.1
2017-Aug-16 07:59N 49°28' W 000°05'0 0.1
2017-Aug-16 07:29N 49°28' W 000°05'0 0.0
2017-Aug-16 06:59N 49°28' W 000°05'0 0.0
2017-Aug-16 06:29N 49°28' W 000°05'0 0.1
2017-Aug-16 05:59N 49°28' W 000°05'0 0.0
2017-Aug-16 05:29N 49°28' W 000°05'0 0.0
2017-Aug-16 04:59N 49°28' W 000°05'0 0.0
2017-Aug-16 04:29N 49°28' W 000°05'0 0.0
2017-Aug-16 03:59N 49°28' W 000°05'0 0.0
2017-Aug-16 03:29N 49°28' W 000°05'0 0.0
2017-Aug-16 02:59N 49°28' W 000°05'0 0.0
2017-Aug-16 02:29N 49°28' W 000°05'0 0.0
2017-Aug-16 01:59N 49°28' W 000°05'0 0.0
2017-Aug-16 01:29N 49°28' W 000°05'0 0.0
2017-Aug-16 00:59N 49°28' W 000°05'0 0.0
2017-Aug-16 00:29N 49°28' W 000°05'0 0.0
2017-Aug-15 23:59N 49°28' W 000°05'0 0.0
2017-Aug-15 23:29N 49°28' W 000°05'0 0.0
2017-Aug-15 22:59N 49°28' W 000°05'0 0.0
2017-Aug-15 22:29N 49°28' W 000°05'0 0.0
2017-Aug-15 21:59N 49°28' W 000°05'0 0.0
2017-Aug-15 21:29N 49°28' W 000°05'0 0.0
2017-Aug-15 20:59N 49°28' W 000°05'0 0.0
2017-Aug-15 20:29N 49°28' W 000°05'0 0.0
2017-Aug-15 19:59N 49°28' W 000°05'0 0.0
2017-Aug-15 19:29N 49°28' W 000°05'0 0.0
2017-Aug-15 18:59N 49°28' W 000°05'0 0.1
2017-Aug-15 18:29N 49°28' W 000°05'0 0.0
2017-Aug-15 17:59N 49°28' W 000°05'0 0.0
2017-Aug-15 17:29N 49°28' W 000°05'0 0.0
2017-Aug-15 16:59N 49°28' W 000°05'0 0.1
2017-Aug-15 16:29N 49°28' W 000°05'0 0.0
2017-Aug-15 15:59N 49°28' W 000°05'0 0.0
2017-Aug-15 15:29N 49°28' W 000°05'0 0.0
2017-Aug-15 14:59N 49°28' W 000°05'0 0.0
2017-Aug-15 14:29N 49°28' W 000°05'0 0.0
2017-Aug-15 13:59N 49°28' W 000°05'1 1.8
2017-Aug-15 13:30N 49°28' W 000°03'612.1
2017-Aug-15 13:00N 49°26' E 000°05'612.3
2017-Aug-15 12:31N 49°26' E 000°15'611.2
2017-Aug-15 12:00N 49°27' E 000°23'611.1
2017-Aug-15 11:30N 49°29' E 000°31'510.8
2017-Aug-15 11:00N 49°27' E 000°39'0 0.0
2017-Aug-14 01:45N 49°27' E 000°39'412.3
2017-Aug-14 01:25N 49°28' E 000°33'4 9.3
2017-Aug-14 01:00N 49°28' E 000°27'815.5
2017-Aug-14 00:30N 49°26' E 000°15'612.8
2017-Aug-14 00:00N 49°26' E 000°06'4 8.6
2017-Aug-13 23:30N 49°30' E 000°02'4 6.6
2017-Aug-13 22:58N 49°28' E 000°07'0 0.0
2017-Aug-13 22:28N 49°28' E 000°07'0 0.0
2017-Aug-13 21:58N 49°28' E 000°07'0 0.0
2017-Aug-13 21:28N 49°28' E 000°07'0 0.0
2017-Aug-13 20:58N 49°28' E 000°07'0 0.0
2017-Aug-13 20:28N 49°28' E 000°07'0 0.0
2017-Aug-13 19:55N 49°28' E 000°07'0 0.0
2017-Aug-13 19:28N 49°28' E 000°07'0 0.0
2017-Aug-13 18:58N 49°28' E 000°07'0 0.0
2017-Aug-13 18:28N 49°28' E 000°07'0 0.0
2017-Aug-13 17:58N 49°28' E 000°07'0 0.0
2017-Aug-13 17:28N 49°28' E 000°07'0 0.0
2017-Aug-13 16:58N 49°28' E 000°07'0 0.0
2017-Aug-13 16:28N 49°28' E 000°07'0 0.0
2017-Aug-13 15:58N 49°28' E 000°07'0 0.0
2017-Aug-13 15:28N 49°28' E 000°07'0 0.0
2017-Aug-13 14:58N 49°28' E 000°07'0 0.0
2017-Aug-13 14:28N 49°28' E 000°07'0 0.0
2017-Aug-13 13:58N 49°28' E 000°07'0 0.0
2017-Aug-13 13:28N 49°28' E 000°07'0 0.0
2017-Aug-13 12:58N 49°28' E 000°07'0 0.0
2017-Aug-13 12:28N 49°28' E 000°07'0 0.0
2017-Aug-13 11:58N 49°28' E 000°07'0 0.6
2017-Aug-13 11:31N 49°29' E 000°07'611.2
2017-Aug-13 11:00N 49°30' W 000°02'1 1.6
2017-Aug-13 10:29N 49°29' W 000°03'0 0.0
2017-Aug-13 09:59N 49°29' W 000°03'0 0.0
2017-Aug-13 09:29N 49°29' W 000°03'0 0.0
2017-Aug-13 08:59N 49°29' W 000°03'0 0.0
2017-Aug-13 08:29N 49°29' W 000°03'1 1.3
2017-Aug-13 08:00N 49°30' W 000°03'612.4
2017-Aug-13 07:30N 49°34' W 000°11'612.8
2017-Aug-13 07:00N 49°40' W 000°11'612.0
2017-Aug-13 06:30N 49°46' W 000°10'2812.3
2017-Aug-13 04:15N 50°14' W 000°07'312.5
2017-Aug-13 03:59N 50°17' W 000°07'612.5
2017-Aug-13 03:30N 50°23' W 000°05'612.9
2017-Aug-13 03:01N 50°28' E 000°01'713.7
2017-Aug-13 02:31N 50°31' E 000°11'713.1
2017-Aug-13 02:00N 50°33' E 000°21'612.6
2017-Aug-13 01:30N 50°34' E 000°30'611.9
2017-Aug-13 01:00N 50°36' E 000°39'611.9
2017-Aug-13 00:31N 50°39' E 000°47'611.9
2017-Aug-13 00:00N 50°43' E 000°55'912.6
2017-Aug-12 23:18N 50°49' E 001°06'413.0
2017-Aug-12 23:00N 50°51' E 001°10'714.1
2017-Aug-12 22:30N 50°56' E 001°19'815.6
2017-Aug-12 22:01N 51°01' E 001°27'816.0
2017-Aug-12 21:31N 51°07' E 001°36'815.7
2017-Aug-12 21:01N 51°12' E 001°45'714.6
2017-Aug-12 20:31N 51°19' E 001°50'714.0
2017-Aug-12 20:00N 51°25' E 001°57'713.4
2017-Aug-12 19:30N 51°30' E 002°04'612.9
2017-Aug-12 19:01N 51°35' E 002°10'612.7
2017-Aug-12 18:30N 51°39' E 002°17'612.3
2017-Aug-12 18:00N 51°44' E 002°24'12713.2
2017-Aug-12 08:21N 53°23' E 004°34'411.6
2017-Aug-12 07:59N 53°27' E 004°38'511.6
2017-Aug-12 07:30N 53°31' E 004°45'611.7
2017-Aug-12 07:00N 53°32' E 004°55'612.0
2017-Aug-12 06:29N 53°34' E 005°04'10113.3
2017-Aug-11 22:52N 54°02' E 007°49'512.5
2017-Aug-11 22:30N 54°01' E 007°57'612.4
2017-Aug-11 22:00N 54°01' E 008°07'5 9.8
2017-Aug-11 21:30N 54°00' E 008°16'714.3
2017-Aug-11 21:00N 53°59' E 008°28'815.4
2017-Aug-11 20:30N 53°56' E 008°40'815.5
2017-Aug-11 20:01N 53°50' E 008°48'816.7
2017-Aug-11 19:30N 53°52' E 009°02'4 8.3
2017-Aug-11 19:00N 53°54' E 009°09'1 2.3
2017-Aug-11 18:30N 53°54' E 009°10'0 0.4
2017-Aug-11 17:58N 53°55' E 009°11'0 0.0
2017-Aug-11 17:28N 53°55' E 009°11'0 0.0
2017-Aug-11 16:58N 53°55' E 009°11'0 0.0
2017-Aug-11 16:25N 53°55' E 009°11'0 0.0
2017-Aug-11 15:58N 53°55' E 009°11'0 0.0
2017-Aug-11 15:25N 53°55' E 009°11'0 0.0
2017-Aug-11 14:58N 53°55' E 009°11'0 0.0
2017-Aug-11 13:58N 53°55' E 009°11'0 0.0
2017-Aug-11 13:28N 53°55' E 009°11'0 0.0
2017-Aug-11 12:58N 53°55' E 009°11'0 0.0
2017-Aug-11 12:28N 53°55' E 009°11'0 0.0
2017-Aug-11 11:58N 53°55' E 009°11'0 0.0
2017-Aug-11 11:28N 53°55' E 009°11'0 0.0
2017-Aug-11 10:55N 53°55' E 009°11'0 0.0
2017-Aug-11 10:28N 53°55' E 009°11'0 0.0
2017-Aug-11 09:55N 53°55' E 009°11'0 0.0
2017-Aug-11 09:19N 53°55' E 009°11'0 0.0
2017-Aug-11 08:58N 53°55' E 009°11'0 0.0
2017-Aug-11 08:28N 53°55' E 009°11'0 0.0
2017-Aug-11 07:55N 53°55' E 009°11'0 0.0
2017-Aug-11 07:28N 53°55' E 009°11'0 0.0
2017-Aug-11 06:58N 53°55' E 009°11'0 0.0
2017-Aug-11 06:28N 53°55' E 009°10'0 0.0
2017-Aug-11 05:52N 53°55' E 009°11'0 0.0
2017-Aug-11 05:28N 53°55' E 009°11'0 0.0
2017-Aug-11 04:58N 53°55' E 009°11'0 0.0
2017-Aug-11 04:28N 53°55' E 009°11'0 0.0
2017-Aug-11 03:58N 53°55' E 009°11'0 0.0
2017-Aug-11 03:16N 53°55' E 009°11'0 0.0
2017-Aug-11 02:58N 53°55' E 009°11'0 0.0
2017-Aug-11 02:28N 53°55' E 009°11'0 0.0
2017-Aug-11 01:58N 53°55' E 009°11'0 0.0
2017-Aug-11 01:28N 53°55' E 009°11'0 0.0
2017-Aug-11 00:58N 53°55' E 009°11'0 0.0
2017-Aug-11 00:25N 53°55' E 009°11'0 0.0
2017-Aug-10 23:58N 53°55' E 009°11'0 0.0
2017-Aug-10 23:25N 53°55' E 009°11'0 0.0
2017-Aug-10 22:58N 53°55' E 009°11'0 0.0
2017-Aug-10 22:28N 53°55' E 009°11'0 0.0
2017-Aug-10 21:58N 53°55' E 009°11'0 0.0
2017-Aug-10 21:28N 53°55' E 009°11'0 0.0
2017-Aug-10 20:58N 53°55' E 009°11'0 0.0
2017-Aug-10 20:28N 53°55' E 009°11'0 0.0
2017-Aug-10 19:58N 53°55' E 009°11'0 0.0
2017-Aug-10 19:13N 53°55' E 009°11'0 0.0
2017-Aug-10 18:58N 53°55' E 009°11'0 0.0
2017-Aug-10 18:19N 53°55' E 009°11'0 0.0
2017-Aug-10 18:00N 53°55' E 009°11'0 0.7
2017-Aug-10 17:31N 53°54' E 009°10'1 2.0
2017-Aug-10 17:00N 53°54' E 009°09'0 0.3
2017-Aug-10 16:30N 53°54' E 009°09'3 5.2
2017-Aug-10 16:00N 53°52' E 009°05'713.7
2017-Aug-10 15:30N 53°50' E 008°54'714.1
2017-Aug-10 15:01N 53°53' E 008°42'714.1
2017-Aug-10 14:30N 53°58' E 008°33'714.3
2017-Aug-10 14:00N 53°59' E 008°22'713.9
2017-Aug-10 13:28N 53°59' E 008°09'612.0
2017-Aug-10 12:59N 53°58' E 007°59'9213.9
2017-Aug-10 06:20N 53°34' E 005°28'513.7
2017-Aug-10 06:00N 53°33' E 005°21'713.7
2017-Aug-10 05:30N 53°31' E 005°10'713.5
2017-Aug-10 05:00N 53°29' E 004°60'713.5
2017-Aug-10 04:30N 53°26' E 004°49'2012.6
2017-Aug-10 02:56N 53°10' E 004°29'512.0
2017-Aug-10 02:30N 53°05' E 004°25'611.9
2017-Aug-10 02:00N 53°00' E 004°20'611.8
2017-Aug-10 01:30N 52°55' E 004°16'612.1
2017-Aug-10 01:00N 52°49' E 004°11'2412.3
2017-Aug-09 23:03N 52°34' E 003°41'312.2
2017-Aug-09 22:50N 52°33' E 003°37'6912.4
2017-Aug-09 17:13N 51°47' E 002°13'314.0
2017-Aug-09 16:58N 51°44' E 002°09'714.1
2017-Aug-09 16:30N 51°39' E 002°02'713.6
2017-Aug-09 16:00N 51°34' E 001°54'815.5
2017-Aug-09 15:30N 51°30' E 001°43'715.0
2017-Aug-09 15:00N 51°27' E 001°33'611.2
2017-Aug-09 14:30N 51°28' E 001°24'715.0
2017-Aug-09 14:00N 51°29' E 001°12'714.0
2017-Aug-09 13:30N 51°29' E 001°01'6 0.2
2017-Aug-07 23:55N 51°30' E 000°51'3 6.8
2017-Aug-07 23:28N 51°29' E 000°55'511.6
2017-Aug-07 23:00N 51°30' E 001°04'613.0
2017-Aug-07 22:31N 51°29' E 001°14'612.9
2017-Aug-07 22:00N 51°28' E 001°25'5 9.3
2017-Aug-07 21:30N 51°26' E 001°31'611.2
2017-Aug-07 21:01N 51°32' E 001°29'0 0.2
2017-Aug-07 20:29N 51°32' E 001°29'0 0.0
2017-Aug-07 19:56N 51°32' E 001°29'0 0.0
2017-Aug-07 19:29N 51°32' E 001°29'0 0.0
2017-Aug-07 18:59N 51°32' E 001°29'0 0.1
2017-Aug-07 18:26N 51°32' E 001°30'0 0.0
2017-Aug-07 17:56N 51°32' E 001°30'0 0.0
2017-Aug-07 17:29N 51°32' E 001°30'0 0.0
2017-Aug-07 16:56N 51°32' E 001°30'0 0.0
2017-Aug-07 16:26N 51°32' E 001°30'0 0.0
2017-Aug-07 15:59N 51°32' E 001°30'0 0.0
2017-Aug-07 15:29N 51°32' E 001°30'0 0.0
2017-Aug-07 14:59N 51°32' E 001°30'0 0.0
2017-Aug-07 14:29N 51°32' E 001°30'0 0.0
2017-Aug-07 13:59N 51°32' E 001°30'0 0.0
2017-Aug-07 13:29N 51°32' E 001°30'0 0.0
2017-Aug-07 12:59N 51°32' E 001°29'0 0.0
2017-Aug-07 12:29N 51°32' E 001°29'0 0.1
2017-Aug-07 11:59N 51°32' E 001°29'0 0.0
2017-Aug-07 11:29N 51°32' E 001°29'0 0.0
2017-Aug-07 10:59N 51°32' E 001°29'0 0.0
2017-Aug-07 10:29N 51°32' E 001°29'0 0.0
2017-Aug-07 09:59N 51°32' E 001°29'0 0.0
2017-Aug-07 09:29N 51°32' E 001°29'0 0.0
2017-Aug-07 08:59N 51°32' E 001°29'0 0.0
2017-Aug-07 08:29N 51°32' E 001°29'0 0.1
2017-Aug-07 07:59N 51°32' E 001°29'0 0.0
2017-Aug-07 07:29N 51°32' E 001°29'0 0.1
2017-Aug-07 06:53N 51°32' E 001°29'0 0.2
2017-Aug-07 06:29N 51°32' E 001°30'0 0.1
2017-Aug-07 05:50N 51°32' E 001°30'0 0.0
2017-Aug-07 05:26N 51°32' E 001°30'0 0.0
2017-Aug-07 04:59N 51°32' E 001°30'0 0.0
2017-Aug-07 04:23N 51°32' E 001°30'0 0.2
2017-Aug-07 04:00N 51°32' E 001°30'3 7.0
2017-Aug-07 03:30N 51°31' E 001°35'5 9.3
2017-Aug-07 03:00N 51°32' E 001°42'5 9.1
2017-Aug-07 02:31N 51°34' E 001°49'5 9.3
2017-Aug-07 02:00N 51°36' E 001°56'5 9.6
2017-Aug-07 01:30N 51°39' E 002°01'4 9.2
2017-Aug-07 01:01N 51°43' E 002°06'5 9.2
2017-Aug-07 00:31N 51°46' E 002°11'5 9.1
2017-Aug-06 23:59N 51°49' E 002°16'26 9.3
2017-Aug-06 21:14N 52°09' E 002°44'2210.9
2017-Aug-06 19:13N 52°24' E 003°09'312.2
2017-Aug-06 19:00N 52°26' E 003°13'  

Dump ship's entire track history